sensor_id;sensor_type;location;lat;lon;timestamp;P1;durP1;ratioP1;P2;durP2;ratioP2
49548;SDS011;35450;44.518;7.466;2023-03-04T00:03:03;16.17;;;7.72;;
49548;SDS011;35450;44.518;7.466;2023-03-04T00:06:09;14.60;;;5.95;;
49548;SDS011;35450;44.518;7.466;2023-03-04T00:09:13;11.18;;;5.30;;
49548;SDS011;35450;44.518;7.466;2023-03-04T00:12:17;19.58;;;8.27;;
49548;SDS011;35450;44.518;7.466;2023-03-04T00:15:21;14.38;;;8.15;;
49548;SDS011;35450;44.518;7.466;2023-03-04T00:18:25;26.45;;;13.43;;
49548;SDS011;35450;44.518;7.466;2023-03-04T00:21:29;31.02;;;18.13;;
49548;SDS011;35450;44.518;7.466;2023-03-04T00:24:33;34.80;;;18.77;;
49548;SDS011;35450;44.518;7.466;2023-03-04T00:27:37;21.95;;;10.90;;
49548;SDS011;35450;44.518;7.466;2023-03-04T00:30:41;27.13;;;14.07;;
49548;SDS011;35450;44.518;7.466;2023-03-04T00:33:45;13.88;;;7.45;;
49548;SDS011;35450;44.518;7.466;2023-03-04T00:36:49;23.75;;;9.20;;
49548;SDS011;35450;44.518;7.466;2023-03-04T00:39:54;12.88;;;7.30;;
49548;SDS011;35450;44.518;7.466;2023-03-04T00:42:58;17.58;;;8.90;;
49548;SDS011;35450;44.518;7.466;2023-03-04T00:46:02;18.70;;;7.93;;
49548;SDS011;35450;44.518;7.466;2023-03-04T00:49:07;21.02;;;9.70;;
49548;SDS011;35450;44.518;7.466;2023-03-04T00:52:10;27.20;;;9.77;;
49548;SDS011;35450;44.518;7.466;2023-03-04T00:55:14;14.43;;;6.88;;
49548;SDS011;35450;44.518;7.466;2023-03-04T00:58:18;23.17;;;8.98;;
49548;SDS011;35450;44.518;7.466;2023-03-04T01:01:22;23.15;;;12.43;;
49548;SDS011;35450;44.518;7.466;2023-03-04T01:04:28;30.13;;;12.10;;
49548;SDS011;35450;44.518;7.466;2023-03-04T01:07:32;18.42;;;10.52;;
49548;SDS011;35450;44.518;7.466;2023-03-04T01:10:37;18.35;;;9.10;;
49548;SDS011;35450;44.518;7.466;2023-03-04T01:13:41;14.88;;;8.63;;
49548;SDS011;35450;44.518;7.466;2023-03-04T01:16:47;10.30;;;6.68;;
49548;SDS011;35450;44.518;7.466;2023-03-04T01:19:51;11.30;;;6.60;;
49548;SDS011;35450;44.518;7.466;2023-03-04T01:22:56;16.08;;;7.22;;
49548;SDS011;35450;44.518;7.466;2023-03-04T01:26:00;12.32;;;7.30;;
49548;SDS011;35450;44.518;7.466;2023-03-04T01:29:04;19.85;;;9.80;;
49548;SDS011;35450;44.518;7.466;2023-03-04T01:32:09;17.05;;;10.25;;
49548;SDS011;35450;44.518;7.466;2023-03-04T01:35:13;23.38;;;11.55;;
49548;SDS011;35450;44.518;7.466;2023-03-04T01:38:17;21.45;;;9.02;;
49548;SDS011;35450;44.518;7.466;2023-03-04T01:41:26;15.38;;;8.50;;
49548;SDS011;35450;44.518;7.466;2023-03-04T01:44:31;15.32;;;8.98;;
49548;SDS011;35450;44.518;7.466;2023-03-04T01:47:35;17.88;;;8.57;;
49548;SDS011;35450;44.518;7.466;2023-03-04T01:50:39;17.05;;;8.15;;
49548;SDS011;35450;44.518;7.466;2023-03-04T01:53:43;18.73;;;7.75;;
49548;SDS011;35450;44.518;7.466;2023-03-04T01:56:49;15.18;;;9.95;;
49548;SDS011;35450;44.518;7.466;2023-03-04T02:00:28;20.08;;;11.43;;
49548;SDS011;35450;44.518;7.466;2023-03-04T02:03:33;17.77;;;10.88;;
49548;SDS011;35450;44.518;7.466;2023-03-04T02:06:38;15.10;;;10.20;;
49548;SDS011;35450;44.518;7.466;2023-03-04T02:09:43;15.43;;;7.80;;
49548;SDS011;35450;44.518;7.466;2023-03-04T02:12:50;10.65;;;6.85;;
49548;SDS011;35450;44.518;7.466;2023-03-04T02:15:55;17.65;;;9.15;;
49548;SDS011;35450;44.518;7.466;2023-03-04T02:18:59;15.93;;;8.85;;
49548;SDS011;35450;44.518;7.466;2023-03-04T02:22:04;14.48;;;8.20;;
49548;SDS011;35450;44.518;7.466;2023-03-04T02:25:10;11.63;;;7.10;;
49548;SDS011;35450;44.518;7.466;2023-03-04T02:28:18;13.20;;;7.50;;
49548;SDS011;35450;44.518;7.466;2023-03-04T02:34:43;12.95;;;7.30;;
49548;SDS011;35450;44.518;7.466;2023-03-04T02:40:53;10.90;;;7.30;;
49548;SDS011;35450;44.518;7.466;2023-03-04T02:43:59;9.90;;;6.47;;
49548;SDS011;35450;44.518;7.466;2023-03-04T02:47:06;12.32;;;7.03;;
49548;SDS011;35450;44.518;7.466;2023-03-04T02:50:12;14.48;;;7.20;;
49548;SDS011;35450;44.518;7.466;2023-03-04T02:53:16;14.30;;;6.57;;
49548;SDS011;35450;44.518;7.466;2023-03-04T02:56:20;10.02;;;6.38;;
49548;SDS011;35450;44.518;7.466;2023-03-04T02:59:24;11.52;;;6.93;;
49548;SDS011;35450;44.518;7.466;2023-03-04T03:02:28;13.23;;;6.38;;
49548;SDS011;35450;44.518;7.466;2023-03-04T03:05:33;10.80;;;6.85;;
49548;SDS011;35450;44.518;7.466;2023-03-04T03:08:39;16.98;;;7.68;;
49548;SDS011;35450;44.518;7.466;2023-03-04T03:11:43;12.88;;;6.82;;
49548;SDS011;35450;44.518;7.466;2023-03-04T03:14:47;13.00;;;6.78;;
49548;SDS011;35450;44.518;7.466;2023-03-04T03:17:55;10.02;;;6.55;;
49548;SDS011;35450;44.518;7.466;2023-03-04T03:21:00;9.10;;;6.50;;
49548;SDS011;35450;44.518;7.466;2023-03-04T03:24:05;10.82;;;7.50;;
49548;SDS011;35450;44.518;7.466;2023-03-04T03:27:09;12.02;;;7.13;;
49548;SDS011;35450;44.518;7.466;2023-03-04T03:30:13;14.18;;;7.40;;
49548;SDS011;35450;44.518;7.466;2023-03-04T03:33:18;10.70;;;6.78;;
49548;SDS011;35450;44.518;7.466;2023-03-04T03:36:22;19.17;;;7.75;;
49548;SDS011;35450;44.518;7.466;2023-03-04T03:39:26;17.42;;;8.23;;
49548;SDS011;35450;44.518;7.466;2023-03-04T03:42:30;12.13;;;6.97;;
49548;SDS011;35450;44.518;7.466;2023-03-04T03:45:34;15.68;;;6.97;;
49548;SDS011;35450;44.518;7.466;2023-03-04T03:48:38;12.25;;;7.65;;
49548;SDS011;35450;44.518;7.466;2023-03-04T03:51:42;10.27;;;6.38;;
49548;SDS011;35450;44.518;7.466;2023-03-04T03:54:46;13.73;;;6.80;;
49548;SDS011;35450;44.518;7.466;2023-03-04T03:57:50;13.45;;;6.57;;
49548;SDS011;35450;44.518;7.466;2023-03-04T04:00:54;12.98;;;6.63;;
49548;SDS011;35450;44.518;7.466;2023-03-04T04:03:58;13.18;;;7.82;;
49548;SDS011;35450;44.518;7.466;2023-03-04T04:07:02;15.52;;;7.38;;
49548;SDS011;35450;44.518;7.466;2023-03-04T04:10:06;13.85;;;6.53;;
49548;SDS011;35450;44.518;7.466;2023-03-04T04:13:10;12.20;;;6.35;;
49548;SDS011;35450;44.518;7.466;2023-03-04T04:16:15;14.50;;;6.78;;
49548;SDS011;35450;44.518;7.466;2023-03-04T04:19:19;11.73;;;6.97;;
49548;SDS011;35450;44.518;7.466;2023-03-04T04:22:23;12.40;;;6.45;;
49548;SDS011;35450;44.518;7.466;2023-03-04T04:25:27;11.85;;;6.40;;
49548;SDS011;35450;44.518;7.466;2023-03-04T04:28:31;16.08;;;6.78;;
49548;SDS011;35450;44.518;7.466;2023-03-04T04:31:35;20.38;;;8.35;;
49548;SDS011;35450;44.518;7.466;2023-03-04T04:34:39;12.98;;;7.30;;
49548;SDS011;35450;44.518;7.466;2023-03-04T04:37:43;11.18;;;6.50;;
49548;SDS011;35450;44.518;7.466;2023-03-04T04:40:47;13.93;;;6.68;;
49548;SDS011;35450;44.518;7.466;2023-03-04T04:43:51;14.38;;;6.85;;
49548;SDS011;35450;44.518;7.466;2023-03-04T04:46:55;11.63;;;7.20;;
49548;SDS011;35450;44.518;7.466;2023-03-04T04:49:59;11.25;;;7.13;;
49548;SDS011;35450;44.518;7.466;2023-03-04T04:53:03;14.63;;;7.75;;
49548;SDS011;35450;44.518;7.466;2023-03-04T04:56:10;15.90;;;7.13;;
49548;SDS011;35450;44.518;7.466;2023-03-04T04:59:24;12.82;;;6.95;;
49548;SDS011;35450;44.518;7.466;2023-03-04T05:02:28;12.27;;;7.57;;
49548;SDS011;35450;44.518;7.466;2023-03-04T05:05:32;13.90;;;7.78;;
49548;SDS011;35450;44.518;7.466;2023-03-04T05:08:36;13.02;;;7.13;;
49548;SDS011;35450;44.518;7.466;2023-03-04T05:11:40;14.95;;;7.57;;
49548;SDS011;35450;44.518;7.466;2023-03-04T05:14:44;14.40;;;9.63;;
49548;SDS011;35450;44.518;7.466;2023-03-04T05:17:48;14.65;;;8.00;;
49548;SDS011;35450;44.518;7.466;2023-03-04T05:20:56;14.00;;;6.97;;
49548;SDS011;35450;44.518;7.466;2023-03-04T05:24:01;15.00;;;8.98;;
49548;SDS011;35450;44.518;7.466;2023-03-04T05:27:05;12.60;;;8.38;;
49548;SDS011;35450;44.518;7.466;2023-03-04T05:30:09;21.40;;;9.57;;
49548;SDS011;35450;44.518;7.466;2023-03-04T05:33:15;14.60;;;8.35;;
49548;SDS011;35450;44.518;7.466;2023-03-04T05:36:19;15.35;;;8.70;;
49548;SDS011;35450;44.518;7.466;2023-03-04T05:39:23;16.13;;;7.93;;
49548;SDS011;35450;44.518;7.466;2023-03-04T05:42:27;18.20;;;8.40;;
49548;SDS011;35450;44.518;7.466;2023-03-04T05:45:31;16.42;;;8.25;;
49548;SDS011;35450;44.518;7.466;2023-03-04T05:48:36;17.35;;;7.60;;
49548;SDS011;35450;44.518;7.466;2023-03-04T05:51:40;12.55;;;7.30;;
49548;SDS011;35450;44.518;7.466;2023-03-04T05:54:44;13.40;;;7.53;;
49548;SDS011;35450;44.518;7.466;2023-03-04T05:57:48;14.65;;;7.88;;
49548;SDS011;35450;44.518;7.466;2023-03-04T06:00:52;10.27;;;6.25;;
49548;SDS011;35450;44.518;7.466;2023-03-04T06:03:57;10.50;;;6.60;;
49548;SDS011;35450;44.518;7.466;2023-03-04T06:07:01;12.02;;;7.80;;
49548;SDS011;35450;44.518;7.466;2023-03-04T06:10:05;38.28;;;24.13;;
49548;SDS011;35450;44.518;7.466;2023-03-04T06:13:10;18.70;;;11.68;;
49548;SDS011;35450;44.518;7.466;2023-03-04T06:16:14;14.55;;;7.93;;
49548;SDS011;35450;44.518;7.466;2023-03-04T06:19:19;16.50;;;7.03;;
49548;SDS011;35450;44.518;7.466;2023-03-04T06:22:23;11.32;;;6.80;;
49548;SDS011;35450;44.518;7.466;2023-03-04T06:25:27;12.52;;;6.63;;
49548;SDS011;35450;44.518;7.466;2023-03-04T06:28:31;13.75;;;7.38;;
49548;SDS011;35450;44.518;7.466;2023-03-04T06:31:35;14.25;;;8.63;;
49548;SDS011;35450;44.518;7.466;2023-03-04T06:34:39;13.07;;;8.07;;
49548;SDS011;35450;44.518;7.466;2023-03-04T06:37:43;21.15;;;7.72;;
49548;SDS011;35450;44.518;7.466;2023-03-04T06:40:47;16.33;;;8.07;;
49548;SDS011;35450;44.518;7.466;2023-03-04T06:43:54;12.63;;;7.28;;
49548;SDS011;35450;44.518;7.466;2023-03-04T06:46:58;30.20;;;17.90;;
49548;SDS011;35450;44.518;7.466;2023-03-04T06:50:03;43.95;;;33.63;;
49548;SDS011;35450;44.518;7.466;2023-03-04T06:53:07;25.80;;;18.58;;
49548;SDS011;35450;44.518;7.466;2023-03-04T06:56:12;25.50;;;13.57;;
49548;SDS011;35450;44.518;7.466;2023-03-04T06:59:19;13.57;;;7.50;;
49548;SDS011;35450;44.518;7.466;2023-03-04T07:02:23;14.05;;;6.43;;
49548;SDS011;35450;44.518;7.466;2023-03-04T07:05:26;14.13;;;7.60;;
49548;SDS011;35450;44.518;7.466;2023-03-04T07:08:31;21.80;;;9.55;;
49548;SDS011;35450;44.518;7.466;2023-03-04T07:11:34;21.30;;;11.00;;
49548;SDS011;35450;44.518;7.466;2023-03-04T07:14:38;23.45;;;11.05;;
49548;SDS011;35450;44.518;7.466;2023-03-04T07:17:42;32.72;;;18.85;;
49548;SDS011;35450;44.518;7.466;2023-03-04T07:20:46;41.00;;;23.48;;
49548;SDS011;35450;44.518;7.466;2023-03-04T07:23:54;46.28;;;26.80;;
49548;SDS011;35450;44.518;7.466;2023-03-04T07:26:58;43.75;;;25.92;;
49548;SDS011;35450;44.518;7.466;2023-03-04T07:30:02;44.42;;;26.85;;
49548;SDS011;35450;44.518;7.466;2023-03-04T07:33:05;52.40;;;27.30;;
49548;SDS011;35450;44.518;7.466;2023-03-04T07:36:09;37.15;;;20.77;;
49548;SDS011;35450;44.518;7.466;2023-03-04T07:39:13;40.80;;;20.88;;
49548;SDS011;35450;44.518;7.466;2023-03-04T07:42:17;32.97;;;15.30;;
49548;SDS011;35450;44.518;7.466;2023-03-04T07:45:29;18.87;;;10.57;;
49548;SDS011;35450;44.518;7.466;2023-03-04T07:48:33;20.33;;;10.82;;
49548;SDS011;35450;44.518;7.466;2023-03-04T07:51:37;18.10;;;7.68;;
49548;SDS011;35450;44.518;7.466;2023-03-04T07:54:41;14.88;;;7.47;;
49548;SDS011;35450;44.518;7.466;2023-03-04T07:57:45;12.20;;;7.28;;
49548;SDS011;35450;44.518;7.466;2023-03-04T08:00:50;14.38;;;7.03;;
49548;SDS011;35450;44.518;7.466;2023-03-04T08:03:54;12.80;;;6.40;;
49548;SDS011;35450;44.518;7.466;2023-03-04T08:06:58;15.63;;;7.70;;
49548;SDS011;35450;44.518;7.466;2023-03-04T08:10:03;11.25;;;7.05;;
49548;SDS011;35450;44.518;7.466;2023-03-04T08:13:07;12.57;;;6.85;;
49548;SDS011;35450;44.518;7.466;2023-03-04T08:16:13;16.85;;;7.10;;
49548;SDS011;35450;44.518;7.466;2023-03-04T08:19:18;9.77;;;6.13;;
49548;SDS011;35450;44.518;7.466;2023-03-04T08:22:22;13.07;;;6.68;;
49548;SDS011;35450;44.518;7.466;2023-03-04T08:25:26;11.77;;;7.35;;
49548;SDS011;35450;44.518;7.466;2023-03-04T08:28:30;15.63;;;7.22;;
49548;SDS011;35450;44.518;7.466;2023-03-04T08:31:35;14.50;;;8.00;;
49548;SDS011;35450;44.518;7.466;2023-03-04T08:34:39;13.95;;;8.18;;
49548;SDS011;35450;44.518;7.466;2023-03-04T08:37:43;14.80;;;8.55;;
49548;SDS011;35450;44.518;7.466;2023-03-04T08:40:52;16.30;;;7.95;;
49548;SDS011;35450;44.518;7.466;2023-03-04T08:43:59;12.57;;;7.57;;
49548;SDS011;35450;44.518;7.466;2023-03-04T08:47:03;18.00;;;8.15;;
49548;SDS011;35450;44.518;7.466;2023-03-04T08:50:08;15.43;;;8.57;;
49548;SDS011;35450;44.518;7.466;2023-03-04T08:53:13;16.55;;;7.28;;
49548;SDS011;35450;44.518;7.466;2023-03-04T08:56:17;12.95;;;6.60;;
49548;SDS011;35450;44.518;7.466;2023-03-04T08:59:21;18.10;;;7.97;;
49548;SDS011;35450;44.518;7.466;2023-03-04T09:02:25;12.95;;;7.72;;
49548;SDS011;35450;44.518;7.466;2023-03-04T09:05:30;14.13;;;7.97;;
49548;SDS011;35450;44.518;7.466;2023-03-04T09:08:34;16.58;;;8.85;;
49548;SDS011;35450;44.518;7.466;2023-03-04T09:11:38;16.17;;;8.10;;
49548;SDS011;35450;44.518;7.466;2023-03-04T09:14:42;15.88;;;8.07;;
49548;SDS011;35450;44.518;7.466;2023-03-04T09:17:46;17.85;;;8.23;;
49548;SDS011;35450;44.518;7.466;2023-03-04T09:20:50;19.48;;;8.40;;
49548;SDS011;35450;44.518;7.466;2023-03-04T09:23:54;12.70;;;7.78;;
49548;SDS011;35450;44.518;7.466;2023-03-04T09:26:58;17.50;;;8.75;;
49548;SDS011;35450;44.518;7.466;2023-03-04T09:30:02;14.43;;;7.70;;
49548;SDS011;35450;44.518;7.466;2023-03-04T09:33:07;15.27;;;8.32;;
49548;SDS011;35450;44.518;7.466;2023-03-04T09:36:12;12.15;;;7.68;;
49548;SDS011;35450;44.518;7.466;2023-03-04T09:39:16;17.75;;;8.43;;
49548;SDS011;35450;44.518;7.466;2023-03-04T09:42:24;13.20;;;8.45;;
49548;SDS011;35450;44.518;7.466;2023-03-04T09:45:46;13.02;;;8.07;;
49548;SDS011;35450;44.518;7.466;2023-03-04T09:48:57;17.33;;;8.25;;
49548;SDS011;35450;44.518;7.466;2023-03-04T09:58:46;15.75;;;8.57;;
49548;SDS011;35450;44.518;7.466;2023-03-04T10:02:19;16.77;;;8.05;;
49548;SDS011;35450;44.518;7.466;2023-03-04T10:12:22;17.85;;;9.30;;
49548;SDS011;35450;44.518;7.466;2023-03-04T10:15:34;14.60;;;9.20;;
49548;SDS011;35450;44.518;7.466;2023-03-04T10:18:57;16.42;;;9.52;;
49548;SDS011;35450;44.518;7.466;2023-03-04T10:22:14;21.73;;;9.90;;
49548;SDS011;35450;44.518;7.466;2023-03-04T10:25:25;15.02;;;8.80;;
49548;SDS011;35450;44.518;7.466;2023-03-04T10:28:33;18.17;;;10.52;;
49548;SDS011;35450;44.518;7.466;2023-03-04T10:31:38;16.13;;;10.38;;
49548;SDS011;35450;44.518;7.466;2023-03-04T10:34:44;21.80;;;11.38;;
49548;SDS011;35450;44.518;7.466;2023-03-04T10:37:49;14.45;;;10.35;;
49548;SDS011;35450;44.518;7.466;2023-03-04T10:40:54;18.15;;;11.27;;
49548;SDS011;35450;44.518;7.466;2023-03-04T10:47:14;24.88;;;10.40;;
49548;SDS011;35450;44.518;7.466;2023-03-04T10:50:24;20.98;;;10.93;;
49548;SDS011;35450;44.518;7.466;2023-03-04T10:53:35;16.83;;;10.23;;
49548;SDS011;35450;44.518;7.466;2023-03-04T10:56:42;18.85;;;10.52;;
49548;SDS011;35450;44.518;7.466;2023-03-04T11:00:01;15.95;;;9.70;;
49548;SDS011;35450;44.518;7.466;2023-03-04T11:03:23;20.73;;;10.18;;
49548;SDS011;35450;44.518;7.466;2023-03-04T11:06:31;16.45;;;9.98;;
49548;SDS011;35450;44.518;7.466;2023-03-04T11:09:35;14.38;;;9.73;;
49548;SDS011;35450;44.518;7.466;2023-03-04T11:12:40;20.42;;;9.73;;
49548;SDS011;35450;44.518;7.466;2023-03-04T11:15:52;23.90;;;9.75;;
49548;SDS011;35450;44.518;7.466;2023-03-04T11:19:05;18.92;;;11.07;;
49548;SDS011;35450;44.518;7.466;2023-03-04T11:22:16;15.10;;;9.80;;
49548;SDS011;35450;44.518;7.466;2023-03-04T11:25:26;21.08;;;9.88;;
49548;SDS011;35450;44.518;7.466;2023-03-04T11:28:45;22.00;;;10.45;;
49548;SDS011;35450;44.518;7.466;2023-03-04T11:32:18;15.77;;;8.70;;
49548;SDS011;35450;44.518;7.466;2023-03-04T11:35:28;20.10;;;9.63;;
49548;SDS011;35450;44.518;7.466;2023-03-04T11:38:43;18.77;;;9.98;;
49548;SDS011;35450;44.518;7.466;2023-03-04T12:02:29;15.48;;;9.77;;
49548;SDS011;35450;44.518;7.466;2023-03-04T12:09:17;16.77;;;8.43;;
49548;SDS011;35450;44.518;7.466;2023-03-04T12:12:46;13.75;;;7.88;;
49548;SDS011;35450;44.518;7.466;2023-03-04T12:40:25;14.52;;;8.52;;
49548;SDS011;35450;44.518;7.466;2023-03-04T12:50:25;11.45;;;7.72;;
49548;SDS011;35450;44.518;7.466;2023-03-04T12:56:50;13.23;;;8.43;;
49548;SDS011;35450;44.518;7.466;2023-03-04T13:06:44;11.88;;;7.65;;
49548;SDS011;35450;44.518;7.466;2023-03-04T13:10:06;14.23;;;7.45;;
49548;SDS011;35450;44.518;7.466;2023-03-04T13:16:51;11.77;;;7.65;;
49548;SDS011;35450;44.518;7.466;2023-03-04T13:20:10;19.63;;;7.90;;
49548;SDS011;35450;44.518;7.466;2023-03-04T13:23:54;14.77;;;7.75;;
49548;SDS011;35450;44.518;7.466;2023-03-04T13:26:59;17.52;;;8.15;;
49548;SDS011;35450;44.518;7.466;2023-03-04T13:30:07;15.27;;;8.35;;
49548;SDS011;35450;44.518;7.466;2023-03-04T13:33:47;13.45;;;6.60;;
49548;SDS011;35450;44.518;7.466;2023-03-04T13:36:55;11.05;;;6.85;;
49548;SDS011;35450;44.518;7.466;2023-03-04T13:43:36;10.20;;;7.05;;
49548;SDS011;35450;44.518;7.466;2023-03-04T13:46:44;15.45;;;8.40;;
49548;SDS011;35450;44.518;7.466;2023-03-04T13:49:48;13.55;;;7.82;;
49548;SDS011;35450;44.518;7.466;2023-03-04T13:52:52;23.88;;;7.78;;
49548;SDS011;35450;44.518;7.466;2023-03-04T13:56:03;10.52;;;6.95;;
49548;SDS011;35450;44.518;7.466;2023-03-04T14:02:12;15.80;;;7.53;;
49548;SDS011;35450;44.518;7.466;2023-03-04T14:05:23;15.88;;;8.10;;
49548;SDS011;35450;44.518;7.466;2023-03-04T14:08:27;16.20;;;7.43;;
49548;SDS011;35450;44.518;7.466;2023-03-04T14:11:33;12.25;;;7.32;;
49548;SDS011;35450;44.518;7.466;2023-03-04T14:14:44;13.20;;;6.97;;
49548;SDS011;35450;44.518;7.466;2023-03-04T14:17:52;11.70;;;7.00;;
49548;SDS011;35450;44.518;7.466;2023-03-04T14:20:59;13.02;;;7.43;;
49548;SDS011;35450;44.518;7.466;2023-03-04T14:24:07;16.10;;;7.13;;
49548;SDS011;35450;44.518;7.466;2023-03-04T14:33:30;16.85;;;6.90;;
49548;SDS011;35450;44.518;7.466;2023-03-04T14:36:34;12.93;;;5.90;;
49548;SDS011;35450;44.518;7.466;2023-03-04T14:39:39;12.13;;;6.18;;
49548;SDS011;35450;44.518;7.466;2023-03-04T14:42:44;10.23;;;6.43;;
49548;SDS011;35450;44.518;7.466;2023-03-04T14:45:50;11.93;;;6.20;;
49548;SDS011;35450;44.518;7.466;2023-03-04T14:48:56;17.30;;;6.88;;
49548;SDS011;35450;44.518;7.466;2023-03-04T14:52:01;14.18;;;7.18;;
49548;SDS011;35450;44.518;7.466;2023-03-04T14:55:22;12.30;;;7.10;;
49548;SDS011;35450;44.518;7.466;2023-03-04T14:58:30;19.35;;;6.65;;
49548;SDS011;35450;44.518;7.466;2023-03-04T15:04:43;14.85;;;6.78;;
49548;SDS011;35450;44.518;7.466;2023-03-04T15:07:57;14.50;;;6.43;;
49548;SDS011;35450;44.518;7.466;2023-03-04T15:11:04;15.13;;;6.13;;
49548;SDS011;35450;44.518;7.466;2023-03-04T15:14:34;14.43;;;6.90;;
49548;SDS011;35450;44.518;7.466;2023-03-04T15:17:55;11.02;;;6.10;;
49548;SDS011;35450;44.518;7.466;2023-03-04T15:21:05;15.23;;;6.82;;
49548;SDS011;35450;44.518;7.466;2023-03-04T15:24:42;9.40;;;5.88;;
49548;SDS011;35450;44.518;7.466;2023-03-04T15:27:46;13.63;;;6.63;;
49548;SDS011;35450;44.518;7.466;2023-03-04T15:30:52;14.70;;;5.75;;
49548;SDS011;35450;44.518;7.466;2023-03-04T15:33:56;18.75;;;7.82;;
49548;SDS011;35450;44.518;7.466;2023-03-04T15:37:00;14.13;;;5.68;;
49548;SDS011;35450;44.518;7.466;2023-03-04T15:40:05;12.50;;;5.97;;
49548;SDS011;35450;44.518;7.466;2023-03-04T15:43:17;12.10;;;5.43;;
49548;SDS011;35450;44.518;7.466;2023-03-04T15:46:23;12.18;;;5.90;;
49548;SDS011;35450;44.518;7.466;2023-03-04T15:49:26;19.77;;;6.63;;
49548;SDS011;35450;44.518;7.466;2023-03-04T15:52:32;15.18;;;8.02;;
49548;SDS011;35450;44.518;7.466;2023-03-04T15:55:36;16.80;;;7.45;;
49548;SDS011;35450;44.518;7.466;2023-03-04T15:58:40;16.00;;;6.78;;
49548;SDS011;35450;44.518;7.466;2023-03-04T16:01:45;14.32;;;5.65;;
49548;SDS011;35450;44.518;7.466;2023-03-04T16:04:49;14.45;;;6.28;;
49548;SDS011;35450;44.518;7.466;2023-03-04T16:07:53;17.98;;;6.32;;
49548;SDS011;35450;44.518;7.466;2023-03-04T16:10:57;12.90;;;6.30;;
49548;SDS011;35450;44.518;7.466;2023-03-04T16:14:01;16.20;;;7.05;;
49548;SDS011;35450;44.518;7.466;2023-03-04T16:17:05;20.02;;;7.50;;
49548;SDS011;35450;44.518;7.466;2023-03-04T16:20:11;14.60;;;6.60;;
49548;SDS011;35450;44.518;7.466;2023-03-04T16:23:20;40.13;;;8.32;;
49548;SDS011;35450;44.518;7.466;2023-03-04T16:26:34;16.77;;;6.90;;
49548;SDS011;35450;44.518;7.466;2023-03-04T16:29:38;12.57;;;6.07;;
49548;SDS011;35450;44.518;7.466;2023-03-04T16:32:42;14.77;;;6.43;;
49548;SDS011;35450;44.518;7.466;2023-03-04T16:35:46;21.25;;;6.63;;
49548;SDS011;35450;44.518;7.466;2023-03-04T16:38:51;16.45;;;7.40;;
49548;SDS011;35450;44.518;7.466;2023-03-04T16:41:58;23.00;;;11.90;;
49548;SDS011;35450;44.518;7.466;2023-03-04T16:45:02;23.10;;;12.02;;
49548;SDS011;35450;44.518;7.466;2023-03-04T16:48:06;28.50;;;10.48;;
49548;SDS011;35450;44.518;7.466;2023-03-04T16:51:12;22.00;;;7.15;;
49548;SDS011;35450;44.518;7.466;2023-03-04T16:54:24;11.55;;;5.88;;
49548;SDS011;35450;44.518;7.466;2023-03-04T16:57:32;15.93;;;6.63;;
49548;SDS011;35450;44.518;7.466;2023-03-04T17:00:37;9.63;;;5.43;;
49548;SDS011;35450;44.518;7.466;2023-03-04T17:03:40;15.30;;;6.38;;
49548;SDS011;35450;44.518;7.466;2023-03-04T17:06:44;15.80;;;6.35;;
49548;SDS011;35450;44.518;7.466;2023-03-04T17:09:48;21.45;;;7.30;;
49548;SDS011;35450;44.518;7.466;2023-03-04T17:12:53;25.73;;;13.18;;
49548;SDS011;35450;44.518;7.466;2023-03-04T17:16:00;26.88;;;10.40;;
49548;SDS011;35450;44.518;7.466;2023-03-04T17:19:05;15.73;;;7.40;;
49548;SDS011;35450;44.518;7.466;2023-03-04T17:22:09;13.95;;;6.38;;
49548;SDS011;35450;44.518;7.466;2023-03-04T17:25:14;17.88;;;7.47;;
49548;SDS011;35450;44.518;7.466;2023-03-04T17:28:18;13.95;;;5.75;;
49548;SDS011;35450;44.518;7.466;2023-03-04T17:31:22;19.13;;;6.45;;
49548;SDS011;35450;44.518;7.466;2023-03-04T17:34:26;13.45;;;6.90;;
49548;SDS011;35450;44.518;7.466;2023-03-04T17:37:30;20.30;;;6.13;;
49548;SDS011;35450;44.518;7.466;2023-03-04T17:40:34;13.73;;;5.63;;
49548;SDS011;35450;44.518;7.466;2023-03-04T17:43:38;15.20;;;5.97;;
49548;SDS011;35450;44.518;7.466;2023-03-04T17:46:47;23.35;;;8.05;;
49548;SDS011;35450;44.518;7.466;2023-03-04T17:49:51;10.57;;;6.35;;
49548;SDS011;35450;44.518;7.466;2023-03-04T17:52:55;16.50;;;6.38;;
49548;SDS011;35450;44.518;7.466;2023-03-04T17:56:00;17.67;;;6.25;;
49548;SDS011;35450;44.518;7.466;2023-03-04T17:59:05;27.65;;;6.72;;
49548;SDS011;35450;44.518;7.466;2023-03-04T18:02:13;13.52;;;6.82;;
49548;SDS011;35450;44.518;7.466;2023-03-04T18:05:18;11.85;;;6.30;;
49548;SDS011;35450;44.518;7.466;2023-03-04T18:08:22;13.70;;;6.80;;
49548;SDS011;35450;44.518;7.466;2023-03-04T18:11:26;27.33;;;11.95;;
49548;SDS011;35450;44.518;7.466;2023-03-04T18:14:30;16.52;;;8.75;;
49548;SDS011;35450;44.518;7.466;2023-03-04T18:17:34;17.65;;;7.38;;
49548;SDS011;35450;44.518;7.466;2023-03-04T18:20:39;16.45;;;7.13;;
49548;SDS011;35450;44.518;7.466;2023-03-04T18:23:43;16.70;;;7.22;;
49548;SDS011;35450;44.518;7.466;2023-03-04T18:26:47;18.58;;;7.35;;
49548;SDS011;35450;44.518;7.466;2023-03-04T18:29:51;12.98;;;7.20;;
49548;SDS011;35450;44.518;7.466;2023-03-04T18:32:56;15.00;;;7.60;;
49548;SDS011;35450;44.518;7.466;2023-03-04T18:36:06;20.10;;;7.10;;
49548;SDS011;35450;44.518;7.466;2023-03-04T18:39:11;19.00;;;7.38;;
49548;SDS011;35450;44.518;7.466;2023-03-04T18:42:16;14.13;;;8.00;;
49548;SDS011;35450;44.518;7.466;2023-03-04T18:45:20;15.30;;;7.63;;
49548;SDS011;35450;44.518;7.466;2023-03-04T18:48:24;18.52;;;9.35;;
49548;SDS011;35450;44.518;7.466;2023-03-04T18:51:28;16.98;;;8.65;;
49548;SDS011;35450;44.518;7.466;2023-03-04T18:54:33;16.95;;;8.25;;
49548;SDS011;35450;44.518;7.466;2023-03-04T18:57:37;15.13;;;8.07;;
49548;SDS011;35450;44.518;7.466;2023-03-04T19:00:44;21.13;;;7.45;;
49548;SDS011;35450;44.518;7.466;2023-03-04T19:03:49;17.65;;;7.40;;
49548;SDS011;35450;44.518;7.466;2023-03-04T19:06:53;15.30;;;7.30;;
49548;SDS011;35450;44.518;7.466;2023-03-04T19:09:57;15.07;;;7.47;;
49548;SDS011;35450;44.518;7.466;2023-03-04T19:13:01;22.25;;;7.55;;
49548;SDS011;35450;44.518;7.466;2023-03-04T19:16:06;14.75;;;6.20;;
49548;SDS011;35450;44.518;7.466;2023-03-04T19:19:10;19.02;;;6.47;;
49548;SDS011;35450;44.518;7.466;2023-03-04T19:22:14;14.68;;;6.85;;
49548;SDS011;35450;44.518;7.466;2023-03-04T19:25:18;12.85;;;5.95;;
49548;SDS011;35450;44.518;7.466;2023-03-04T19:28:22;12.05;;;5.32;;
49548;SDS011;35450;44.518;7.466;2023-03-04T19:31:26;13.20;;;4.65;;
49548;SDS011;35450;44.518;7.466;2023-03-04T19:34:30;10.07;;;4.28;;
49548;SDS011;35450;44.518;7.466;2023-03-04T19:37:34;14.43;;;4.60;;
49548;SDS011;35450;44.518;7.466;2023-03-04T19:40:39;20.02;;;6.75;;
49548;SDS011;35450;44.518;7.466;2023-03-04T19:43:44;13.82;;;4.65;;
49548;SDS011;35450;44.518;7.466;2023-03-04T19:46:48;17.30;;;4.90;;
49548;SDS011;35450;44.518;7.466;2023-03-04T19:49:51;15.50;;;6.03;;
49548;SDS011;35450;44.518;7.466;2023-03-04T19:52:55;16.02;;;4.45;;
49548;SDS011;35450;44.518;7.466;2023-03-04T19:55:59;12.50;;;5.80;;
49548;SDS011;35450;44.518;7.466;2023-03-04T19:59:04;12.88;;;4.90;;
49548;SDS011;35450;44.518;7.466;2023-03-04T20:02:07;11.23;;;5.20;;
49548;SDS011;35450;44.518;7.466;2023-03-04T20:05:11;12.10;;;5.13;;
49548;SDS011;35450;44.518;7.466;2023-03-04T20:08:16;10.30;;;5.50;;
49548;SDS011;35450;44.518;7.466;2023-03-04T20:11:20;11.40;;;4.93;;
49548;SDS011;35450;44.518;7.466;2023-03-04T20:14:25;13.52;;;6.32;;